sensor_id;sensor_type;location;lat;lon;timestamp;P1;durP1;ratioP1;P2;durP2;ratioP2
19788;SDS011;10054;59.332;18.244;2023-08-20T00:00:14;2.80;;;2.60;;
19788;SDS011;10054;59.332;18.244;2023-08-20T00:02:45;3.07;;;2.63;;
19788;SDS011;10054;59.332;18.244;2023-08-20T00:05:16;3.07;;;2.23;;
19788;SDS011;10054;59.332;18.244;2023-08-20T00:07:44;3.20;;;2.40;;
19788;SDS011;10054;59.332;18.244;2023-08-20T00:10:15;2.67;;;2.40;;
19788;SDS011;10054;59.332;18.244;2023-08-20T00:12:44;3.13;;;2.30;;
19788;SDS011;10054;59.332;18.244;2023-08-20T00:15:13;2.20;;;2.00;;
19788;SDS011;10054;59.332;18.244;2023-08-20T00:17:41;2.37;;;2.10;;
19788;SDS011;10054;59.332;18.244;2023-08-20T00:20:10;2.10;;;1.90;;
19788;SDS011;10054;59.332;18.244;2023-08-20T00:22:46;3.20;;;2.30;;
19788;SDS011;10054;59.332;18.244;2023-08-20T00:25:16;2.23;;;2.13;;
19788;SDS011;10054;59.332;18.244;2023-08-20T00:27:45;3.53;;;2.20;;
19788;SDS011;10054;59.332;18.244;2023-08-20T00:30:13;5.63;;;2.30;;
19788;SDS011;10054;59.332;18.244;2023-08-20T00:32:42;2.40;;;2.20;;
19788;SDS011;10054;59.332;18.244;2023-08-20T00:35:11;3.10;;;2.20;;
19788;SDS011;10054;59.332;18.244;2023-08-20T00:37:40;3.73;;;2.23;;
19788;SDS011;10054;59.332;18.244;2023-08-20T00:40:10;2.40;;;2.20;;
19788;SDS011;10054;59.332;18.244;2023-08-20T00:42:39;2.60;;;2.33;;
19788;SDS011;10054;59.332;18.244;2023-08-20T00:45:08;6.43;;;2.60;;
19788;SDS011;10054;59.332;18.244;2023-08-20T00:47:37;2.73;;;2.27;;
19788;SDS011;10054;59.332;18.244;2023-08-20T00:50:06;3.17;;;2.70;;
19788;SDS011;10054;59.332;18.244;2023-08-20T00:52:37;2.40;;;2.20;;
19788;SDS011;10054;59.332;18.244;2023-08-20T00:55:07;3.83;;;2.33;;
19788;SDS011;10054;59.332;18.244;2023-08-20T00:57:38;2.50;;;2.30;;
19788;SDS011;10054;59.332;18.244;2023-08-20T01:00:08;2.40;;;2.20;;
19788;SDS011;10054;59.332;18.244;2023-08-20T01:02:38;2.20;;;2.10;;
19788;SDS011;10054;59.332;18.244;2023-08-20T01:05:08;2.57;;;2.37;;
19788;SDS011;10054;59.332;18.244;2023-08-20T01:07:43;2.37;;;2.23;;
19788;SDS011;10054;59.332;18.244;2023-08-20T01:13:07;2.37;;;2.20;;
19788;SDS011;10054;59.332;18.244;2023-08-20T01:15:38;2.87;;;2.37;;
19788;SDS011;10054;59.332;18.244;2023-08-20T01:18:07;2.83;;;2.20;;
19788;SDS011;10054;59.332;18.244;2023-08-20T01:20:47;2.60;;;2.40;;
19788;SDS011;10054;59.332;18.244;2023-08-20T01:26:07;2.50;;;2.30;;
19788;SDS011;10054;59.332;18.244;2023-08-20T01:28:37;2.83;;;2.40;;
19788;SDS011;10054;59.332;18.244;2023-08-20T01:31:06;4.20;;;2.10;;
19788;SDS011;10054;59.332;18.244;2023-08-20T01:33:36;4.07;;;2.43;;
19788;SDS011;10054;59.332;18.244;2023-08-20T01:36:06;2.00;;;1.90;;
19788;SDS011;10054;59.332;18.244;2023-08-20T01:38:40;2.47;;;2.27;;
19788;SDS011;10054;59.332;18.244;2023-08-20T01:41:09;2.07;;;1.87;;
19788;SDS011;10054;59.332;18.244;2023-08-20T01:43:38;2.40;;;2.20;;
19788;SDS011;10054;59.332;18.244;2023-08-20T01:46:07;2.40;;;2.10;;
19788;SDS011;10054;59.332;18.244;2023-08-20T01:48:36;2.07;;;1.97;;
19788;SDS011;10054;59.332;18.244;2023-08-20T01:51:04;3.63;;;2.10;;
19788;SDS011;10054;59.332;18.244;2023-08-20T01:53:33;2.23;;;1.90;;
19788;SDS011;10054;59.332;18.244;2023-08-20T01:56:02;2.80;;;2.10;;
19788;SDS011;10054;59.332;18.244;2023-08-20T01:58:30;4.37;;;2.03;;
19788;SDS011;10054;59.332;18.244;2023-08-20T02:00:59;2.30;;;2.10;;
19788;SDS011;10054;59.332;18.244;2023-08-20T02:03:29;2.50;;;2.07;;
19788;SDS011;10054;59.332;18.244;2023-08-20T02:05:58;1.97;;;1.83;;
19788;SDS011;10054;59.332;18.244;2023-08-20T02:08:26;3.80;;;2.40;;
19788;SDS011;10054;59.332;18.244;2023-08-20T02:11:01;2.10;;;1.90;;
19788;SDS011;10054;59.332;18.244;2023-08-20T02:13:31;2.50;;;2.00;;
19788;SDS011;10054;59.332;18.244;2023-08-20T02:16:06;2.20;;;2.00;;
19788;SDS011;10054;59.332;18.244;2023-08-20T02:18:32;2.20;;;2.00;;
19788;SDS011;10054;59.332;18.244;2023-08-20T02:21:00;3.60;;;1.93;;
19788;SDS011;10054;59.332;18.244;2023-08-20T02:23:29;2.30;;;2.03;;
19788;SDS011;10054;59.332;18.244;2023-08-20T02:25:58;2.03;;;1.93;;
19788;SDS011;10054;59.332;18.244;2023-08-20T02:28:29;2.83;;;2.13;;
19788;SDS011;10054;59.332;18.244;2023-08-20T02:30:57;2.60;;;1.90;;
19788;SDS011;10054;59.332;18.244;2023-08-20T02:33:26;1.80;;;1.70;;
19788;SDS011;10054;59.332;18.244;2023-08-20T02:35:55;2.20;;;2.00;;
19788;SDS011;10054;59.332;18.244;2023-08-20T02:38:25;1.93;;;1.77;;
19788;SDS011;10054;59.332;18.244;2023-08-20T02:40:54;2.27;;;2.10;;
19788;SDS011;10054;59.332;18.244;2023-08-20T02:43:23;1.90;;;1.80;;
19788;SDS011;10054;59.332;18.244;2023-08-20T02:45:52;3.93;;;2.00;;
19788;SDS011;10054;59.332;18.244;2023-08-20T02:48:20;1.97;;;1.80;;
19788;SDS011;10054;59.332;18.244;2023-08-20T02:50:51;2.10;;;2.00;;
19788;SDS011;10054;59.332;18.244;2023-08-20T02:53:20;2.73;;;1.67;;
19788;SDS011;10054;59.332;18.244;2023-08-20T02:55:49;2.20;;;2.00;;
19788;SDS011;10054;59.332;18.244;2023-08-20T02:58:18;2.97;;;1.80;;
19788;SDS011;10054;59.332;18.244;2023-08-20T03:00:47;2.60;;;1.80;;
19788;SDS011;10054;59.332;18.244;2023-08-20T03:03:15;3.20;;;1.90;;
19788;SDS011;10054;59.332;18.244;2023-08-20T03:05:44;1.83;;;1.73;;
19788;SDS011;10054;59.332;18.244;2023-08-20T03:08:13;2.30;;;1.80;;
19788;SDS011;10054;59.332;18.244;2023-08-20T03:10:41;2.00;;;1.67;;
19788;SDS011;10054;59.332;18.244;2023-08-20T03:13:10;2.40;;;1.60;;
19788;SDS011;10054;59.332;18.244;2023-08-20T03:15:40;2.70;;;1.60;;
19788;SDS011;10054;59.332;18.244;2023-08-20T03:18:09;1.73;;;1.63;;
19788;SDS011;10054;59.332;18.244;2023-08-20T03:20:37;1.73;;;1.63;;
19788;SDS011;10054;59.332;18.244;2023-08-20T03:23:06;1.97;;;1.77;;
19788;SDS011;10054;59.332;18.244;2023-08-20T03:25:35;2.07;;;1.80;;
19788;SDS011;10054;59.332;18.244;2023-08-20T03:28:03;1.70;;;1.60;;
19788;SDS011;10054;59.332;18.244;2023-08-20T03:30:32;1.80;;;1.70;;
19788;SDS011;10054;59.332;18.244;2023-08-20T03:33:01;1.60;;;1.50;;
19788;SDS011;10054;59.332;18.244;2023-08-20T03:35:31;1.77;;;1.67;;
19788;SDS011;10054;59.332;18.244;2023-08-20T03:38:00;1.43;;;1.43;;
19788;SDS011;10054;59.332;18.244;2023-08-20T03:40:28;1.80;;;1.70;;
19788;SDS011;10054;59.332;18.244;2023-08-20T03:42:57;1.70;;;1.60;;
19788;SDS011;10054;59.332;18.244;2023-08-20T03:45:27;1.80;;;1.70;;
19788;SDS011;10054;59.332;18.244;2023-08-20T03:47:58;1.70;;;1.60;;
19788;SDS011;10054;59.332;18.244;2023-08-20T03:50:26;1.80;;;1.70;;
19788;SDS011;10054;59.332;18.244;2023-08-20T03:52:55;1.90;;;1.80;;
19788;SDS011;10054;59.332;18.244;2023-08-20T03:55:24;1.70;;;1.60;;
19788;SDS011;10054;59.332;18.244;2023-08-20T03:57:52;1.50;;;1.40;;
19788;SDS011;10054;59.332;18.244;2023-08-20T04:00:21;1.90;;;1.80;;
19788;SDS011;10054;59.332;18.244;2023-08-20T04:02:49;1.77;;;1.67;;
19788;SDS011;10054;59.332;18.244;2023-08-20T04:05:18;1.70;;;1.60;;
19788;SDS011;10054;59.332;18.244;2023-08-20T04:07:46;1.60;;;1.50;;
19788;SDS011;10054;59.332;18.244;2023-08-20T04:10:15;1.53;;;1.50;;
19788;SDS011;10054;59.332;18.244;2023-08-20T04:12:44;1.60;;;1.50;;
19788;SDS011;10054;59.332;18.244;2023-08-20T04:15:12;1.40;;;1.30;;
19788;SDS011;10054;59.332;18.244;2023-08-20T04:17:41;1.40;;;1.40;;
19788;SDS011;10054;59.332;18.244;2023-08-20T04:20:10;3.73;;;1.47;;
19788;SDS011;10054;59.332;18.244;2023-08-20T04:22:38;1.30;;;1.30;;
19788;SDS011;10054;59.332;18.244;2023-08-20T04:25:09;1.30;;;1.30;;
19788;SDS011;10054;59.332;18.244;2023-08-20T04:27:38;1.33;;;1.30;;
19788;SDS011;10054;59.332;18.244;2023-08-20T04:30:07;1.80;;;1.50;;
19788;SDS011;10054;59.332;18.244;2023-08-20T04:32:37;2.73;;;1.50;;
19788;SDS011;10054;59.332;18.244;2023-08-20T04:35:05;1.83;;;1.40;;
19788;SDS011;10054;59.332;18.244;2023-08-20T04:37:35;1.77;;;1.17;;
19788;SDS011;10054;59.332;18.244;2023-08-20T04:40:04;1.47;;;1.30;;
19788;SDS011;10054;59.332;18.244;2023-08-20T04:42:34;1.50;;;1.40;;
19788;SDS011;10054;59.332;18.244;2023-08-20T04:45:03;2.23;;;1.30;;
19788;SDS011;10054;59.332;18.244;2023-08-20T04:47:33;1.50;;;1.40;;
19788;SDS011;10054;59.332;18.244;2023-08-20T04:50:03;1.60;;;1.50;;
19788;SDS011;10054;59.332;18.244;2023-08-20T04:52:33;1.70;;;1.30;;
19788;SDS011;10054;59.332;18.244;2023-08-20T04:55:03;1.47;;;1.33;;
19788;SDS011;10054;59.332;18.244;2023-08-20T04:57:35;1.33;;;1.23;;
19788;SDS011;10054;59.332;18.244;2023-08-20T05:00:04;1.40;;;1.30;;
19788;SDS011;10054;59.332;18.244;2023-08-20T05:02:36;2.07;;;1.50;;
19788;SDS011;10054;59.332;18.244;2023-08-20T05:05:05;1.30;;;1.20;;
19788;SDS011;10054;59.332;18.244;2023-08-20T05:07:34;1.60;;;1.50;;
19788;SDS011;10054;59.332;18.244;2023-08-20T05:10:04;1.40;;;1.30;;
19788;SDS011;10054;59.332;18.244;2023-08-20T05:12:33;1.57;;;1.40;;
19788;SDS011;10054;59.332;18.244;2023-08-20T05:15:02;1.57;;;1.40;;
19788;SDS011;10054;59.332;18.244;2023-08-20T05:17:32;3.33;;;1.63;;
19788;SDS011;10054;59.332;18.244;2023-08-20T05:20:01;1.40;;;1.30;;
19788;SDS011;10054;59.332;18.244;2023-08-20T05:22:30;1.50;;;1.40;;
19788;SDS011;10054;59.332;18.244;2023-08-20T05:24:59;1.47;;;1.37;;
19788;SDS011;10054;59.332;18.244;2023-08-20T05:27:27;3.17;;;1.40;;
19788;SDS011;10054;59.332;18.244;2023-08-20T05:29:56;1.30;;;1.30;;
19788;SDS011;10054;59.332;18.244;2023-08-20T05:32:25;1.30;;;1.30;;
19788;SDS011;10054;59.332;18.244;2023-08-20T05:34:54;1.30;;;1.20;;
19788;SDS011;10054;59.332;18.244;2023-08-20T05:37:22;1.47;;;1.30;;
19788;SDS011;10054;59.332;18.244;2023-08-20T05:39:51;2.60;;;1.60;;
19788;SDS011;10054;59.332;18.244;2023-08-20T05:42:20;1.57;;;1.47;;
19788;SDS011;10054;59.332;18.244;2023-08-20T05:44:53;1.40;;;1.30;;
19788;SDS011;10054;59.332;18.244;2023-08-20T05:47:24;1.73;;;1.40;;
19788;SDS011;10054;59.332;18.244;2023-08-20T05:49:53;1.40;;;1.40;;
19788;SDS011;10054;59.332;18.244;2023-08-20T05:52:22;2.23;;;1.77;;
19788;SDS011;10054;59.332;18.244;2023-08-20T05:54:51;1.87;;;1.60;;
19788;SDS011;10054;59.332;18.244;2023-08-20T05:57:20;1.90;;;1.47;;
19788;SDS011;10054;59.332;18.244;2023-08-20T05:59:49;4.30;;;1.80;;
19788;SDS011;10054;59.332;18.244;2023-08-20T06:02:18;1.30;;;1.20;;
19788;SDS011;10054;59.332;18.244;2023-08-20T06:04:46;1.50;;;1.40;;
19788;SDS011;10054;59.332;18.244;2023-08-20T06:07:17;2.57;;;1.53;;
19788;SDS011;10054;59.332;18.244;2023-08-20T06:09:46;1.30;;;1.30;;
19788;SDS011;10054;59.332;18.244;2023-08-20T06:12:16;1.33;;;1.23;;
19788;SDS011;10054;59.332;18.244;2023-08-20T06:14:45;1.50;;;1.40;;
19788;SDS011;10054;59.332;18.244;2023-08-20T06:17:14;2.97;;;1.43;;
19788;SDS011;10054;59.332;18.244;2023-08-20T06:19:44;3.30;;;1.63;;
19788;SDS011;10054;59.332;18.244;2023-08-20T06:22:12;1.57;;;1.30;;
19788;SDS011;10054;59.332;18.244;2023-08-20T06:24:41;1.63;;;1.53;;
19788;SDS011;10054;59.332;18.244;2023-08-20T06:27:10;1.60;;;1.40;;
19788;SDS011;10054;59.332;18.244;2023-08-20T06:29:40;1.57;;;1.47;;
19788;SDS011;10054;59.332;18.244;2023-08-20T06:32:08;1.50;;;1.50;;
19788;SDS011;10054;59.332;18.244;2023-08-20T06:34:37;1.40;;;1.30;;
19788;SDS011;10054;59.332;18.244;2023-08-20T06:37:05;2.20;;;1.40;;
19788;SDS011;10054;59.332;18.244;2023-08-20T06:39:34;1.50;;;1.40;;
19788;SDS011;10054;59.332;18.244;2023-08-20T06:42:03;1.70;;;1.60;;
19788;SDS011;10054;59.332;18.244;2023-08-20T06:44:31;1.50;;;1.40;;
19788;SDS011;10054;59.332;18.244;2023-08-20T06:47:01;1.53;;;1.43;;
19788;SDS011;10054;59.332;18.244;2023-08-20T06:49:30;5.90;;;1.70;;
19788;SDS011;10054;59.332;18.244;2023-08-20T06:51:59;2.90;;;1.40;;
19788;SDS011;10054;59.332;18.244;2023-08-20T06:54:27;1.60;;;1.50;;
19788;SDS011;10054;59.332;18.244;2023-08-20T06:56:56;1.43;;;1.40;;
19788;SDS011;10054;59.332;18.244;2023-08-20T06:59:24;2.20;;;1.53;;
19788;SDS011;10054;59.332;18.244;2023-08-20T07:01:53;1.57;;;1.30;;
19788;SDS011;10054;59.332;18.244;2023-08-20T07:04:22;1.70;;;1.40;;
19788;SDS011;10054;59.332;18.244;2023-08-20T07:06:51;1.47;;;1.40;;
19788;SDS011;10054;59.332;18.244;2023-08-20T07:09:20;2.20;;;1.70;;
19788;SDS011;10054;59.332;18.244;2023-08-20T07:11:48;1.60;;;1.50;;
19788;SDS011;10054;59.332;18.244;2023-08-20T07:14:17;2.13;;;1.70;;
19788;SDS011;10054;59.332;18.244;2023-08-20T07:16:45;1.87;;;1.67;;
19788;SDS011;10054;59.332;18.244;2023-08-20T07:19:14;2.75;;;1.60;;
19788;SDS011;10054;59.332;18.244;2023-08-20T07:21:43;1.80;;;1.70;;
19788;SDS011;10054;59.332;18.244;2023-08-20T07:24:11;2.75;;;1.70;;
19788;SDS011;10054;59.332;18.244;2023-08-20T07:26:40;3.37;;;1.90;;
19788;SDS011;10054;59.332;18.244;2023-08-20T07:29:10;1.65;;;1.55;;
19788;SDS011;10054;59.332;18.244;2023-08-20T07:31:38;2.20;;;2.00;;
19788;SDS011;10054;59.332;18.244;2023-08-20T07:34:07;4.45;;;1.80;;
19788;SDS011;10054;59.332;18.244;2023-08-20T07:36:35;2.65;;;1.80;;
19788;SDS011;10054;59.332;18.244;2023-08-20T07:39:04;2.65;;;1.80;;
19788;SDS011;10054;59.332;18.244;2023-08-20T07:41:33;4.60;;;2.00;;
19788;SDS011;10054;59.332;18.244;2023-08-20T07:44:02;2.10;;;2.00;;
19788;SDS011;10054;59.332;18.244;2023-08-20T07:46:30;4.53;;;2.00;;
19788;SDS011;10054;59.332;18.244;2023-08-20T07:48:59;2.12;;;1.90;;
19788;SDS011;10054;59.332;18.244;2023-08-20T07:51:28;2.35;;;2.00;;
19788;SDS011;10054;59.332;18.244;2023-08-20T07:53:58;2.80;;;2.30;;
19788;SDS011;10054;59.332;18.244;2023-08-20T07:56:27;3.30;;;2.20;;
19788;SDS011;10054;59.332;18.244;2023-08-20T07:58:55;2.27;;;2.10;;
19788;SDS011;10054;59.332;18.244;2023-08-20T08:01:25;2.40;;;2.10;;
19788;SDS011;10054;59.332;18.244;2023-08-20T08:03:54;3.15;;;1.95;;
19788;SDS011;10054;59.332;18.244;2023-08-20T08:06:23;1.90;;;1.80;;
19788;SDS011;10054;59.332;18.244;2023-08-20T08:08:52;2.95;;;2.17;;
19788;SDS011;10054;59.332;18.244;2023-08-20T08:11:20;3.53;;;2.17;;
19788;SDS011;10054;59.332;18.244;2023-08-20T08:13:49;3.30;;;2.07;;
19788;SDS011;10054;59.332;18.244;2023-08-20T08:16:17;2.53;;;2.13;;
19788;SDS011;10054;59.332;18.244;2023-08-20T08:18:46;1.85;;;1.75;;
19788;SDS011;10054;59.332;18.244;2023-08-20T08:21:15;1.90;;;1.80;;
19788;SDS011;10054;59.332;18.244;2023-08-20T08:23:46;2.15;;;1.95;;
19788;SDS011;10054;59.332;18.244;2023-08-20T08:26:14;3.53;;;2.00;;
19788;SDS011;10054;59.332;18.244;2023-08-20T08:28:43;2.37;;;2.10;;
19788;SDS011;10054;59.332;18.244;2023-08-20T08:31:11;2.20;;;2.08;;
19788;SDS011;10054;59.332;18.244;2023-08-20T08:33:40;4.10;;;1.90;;
19788;SDS011;10054;59.332;18.244;2023-08-20T08:36:12;2.10;;;1.90;;
19788;SDS011;10054;59.332;18.244;2023-08-20T08:38:42;1.90;;;1.80;;
19788;SDS011;10054;59.332;18.244;2023-08-20T08:41:12;3.08;;;1.90;;
19788;SDS011;10054;59.332;18.244;2023-08-20T08:43:41;3.15;;;2.10;;
19788;SDS011;10054;59.332;18.244;2023-08-20T08:46:13;2.50;;;2.12;;
19788;SDS011;10054;59.332;18.244;2023-08-20T08:48:43;3.57;;;2.10;;
19788;SDS011;10054;59.332;18.244;2023-08-20T08:51:14;2.60;;;2.30;;
19788;SDS011;10054;59.332;18.244;2023-08-20T08:53:43;2.45;;;1.75;;
19788;SDS011;10054;59.332;18.244;2023-08-20T08:56:13;4.13;;;2.00;;
19788;SDS011;10054;59.332;18.244;2023-08-20T08:58:42;2.55;;;2.08;;
19788;SDS011;10054;59.332;18.244;2023-08-20T09:01:11;2.27;;;2.08;;
19788;SDS011;10054;59.332;18.244;2023-08-20T09:03:39;2.17;;;2.00;;
19788;SDS011;10054;59.332;18.244;2023-08-20T09:06:08;2.22;;;2.10;;
19788;SDS011;10054;59.332;18.244;2023-08-20T09:08:37;2.65;;;2.08;;
19788;SDS011;10054;59.332;18.244;2023-08-20T09:11:07;2.35;;;1.92;;
19788;SDS011;10054;59.332;18.244;2023-08-20T09:13:36;2.40;;;1.90;;
19788;SDS011;10054;59.332;18.244;2023-08-20T09:16:08;2.45;;;2.00;;
19788;SDS011;10054;59.332;18.244;2023-08-20T09:18:40;2.50;;;2.10;;
19788;SDS011;10054;59.332;18.244;2023-08-20T09:21:12;2.27;;;2.10;;
19788;SDS011;10054;59.332;18.244;2023-08-20T09:23:44;2.05;;;1.90;;
19788;SDS011;10054;59.332;18.244;2023-08-20T09:26:15;2.20;;;2.10;;
19788;SDS011;10054;59.332;18.244;2023-08-20T09:28:44;2.37;;;1.90;;
19788;SDS011;10054;59.332;18.244;2023-08-20T09:31:13;2.20;;;2.00;;
19788;SDS011;10054;59.332;18.244;2023-08-20T09:33:52;2.47;;;2.15;;
19788;SDS011;10054;59.332;18.244;2023-08-20T09:36:31;2.27;;;1.90;;
19788;SDS011;10054;59.332;18.244;2023-08-20T09:39:02;2.35;;;1.85;;
19788;SDS011;10054;59.332;18.244;2023-08-20T09:41:31;2.10;;;2.00;;
19788;SDS011;10054;59.332;18.244;2023-08-20T09:44:04;2.20;;;2.00;;
19788;SDS011;10054;59.332;18.244;2023-08-20T09:46:35;2.42;;;2.22;;
19788;SDS011;10054;59.332;18.244;2023-08-20T09:49:05;2.20;;;2.00;;
19788;SDS011;10054;59.332;18.244;2023-08-20T09:51:37;2.20;;;2.00;;
19788;SDS011;10054;59.332;18.244;2023-08-20T09:54:13;2.62;;;2.30;;
19788;SDS011;10054;59.332;18.244;2023-08-20T09:56:51;2.10;;;2.00;;
19788;SDS011;10054;59.332;18.244;2023-08-20T09:59:21;2.25;;;2.08;;
19788;SDS011;10054;59.332;18.244;2023-08-20T10:01:51;2.83;;;2.25;;
19788;SDS011;10054;59.332;18.244;2023-08-20T10:04:21;2.30;;;2.10;;
19788;SDS011;10054;59.332;18.244;2023-08-20T10:06:49;3.60;;;1.77;;
19788;SDS011;10054;59.332;18.244;2023-08-20T10:09:21;4.35;;;2.20;;
19788;SDS011;10054;59.332;18.244;2023-08-20T10:11:50;2.60;;;2.30;;
19788;SDS011;10054;59.332;18.244;2023-08-20T10:14:18;2.20;;;2.10;;
19788;SDS011;10054;59.332;18.244;2023-08-20T10:16:47;2.33;;;2.12;;
19788;SDS011;10054;59.332;18.244;2023-08-20T10:19:16;3.10;;;2.05;;
19788;SDS011;10054;59.332;18.244;2023-08-20T10:21:46;2.58;;;1.90;;
19788;SDS011;10054;59.332;18.244;2023-08-20T10:24:17;2.17;;;2.02;;
19788;SDS011;10054;59.332;18.244;2023-08-20T10:26:46;2.62;;;2.05;;
19788;SDS011;10054;59.332;18.244;2023-08-20T10:32:09;2.10;;;1.87;;
19788;SDS011;10054;59.332;18.244;2023-08-20T10:34:39;2.58;;;2.00;;
19788;SDS011;10054;59.332;18.244;2023-08-20T10:37:10;2.22;;;2.05;;
19788;SDS011;10054;59.332;18.244;2023-08-20T10:39:40;2.45;;;2.25;;
19788;SDS011;10054;59.332;18.244;2023-08-20T10:47:40;2.37;;;2.08;;
19788;SDS011;10054;59.332;18.244;2023-08-20T10:50:15;4.67;;;1.90;;
19788;SDS011;10054;59.332;18.244;2023-08-20T10:52:48;2.55;;;2.00;;
19788;SDS011;10054;59.332;18.244;2023-08-20T10:55:21;2.22;;;1.90;;
19788;SDS011;10054;59.332;18.244;2023-08-20T10:58:02;2.60;;;1.80;;
19788;SDS011;10054;59.332;18.244;2023-08-20T11:00:26;2.05;;;1.87;;
19788;SDS011;10054;59.332;18.244;2023-08-20T11:02:56;2.12;;;2.02;;
19788;SDS011;10054;59.332;18.244;2023-08-20T11:05:26;1.95;;;1.85;;
19788;SDS011;10054;59.332;18.244;2023-08-20T11:07:56;2.02;;;1.90;;
19788;SDS011;10054;59.332;18.244;2023-08-20T11:10:25;2.50;;;1.90;;
19788;SDS011;10054;59.332;18.244;2023-08-20T11:12:55;2.22;;;2.00;;
19788;SDS011;10054;59.332;18.244;2023-08-20T11:15:23;2.30;;;2.10;;
19788;SDS011;10054;59.332;18.244;2023-08-20T11:17:53;2.40;;;1.90;;
19788;SDS011;10054;59.332;18.244;2023-08-20T11:20:22;2.22;;;2.05;;
19788;SDS011;10054;59.332;18.244;2023-08-20T11:22:54;2.17;;;1.85;;
19788;SDS011;10054;59.332;18.244;2023-08-20T11:25:24;2.08;;;1.98;;
19788;SDS011;10054;59.332;18.244;2023-08-20T11:27:53;2.30;;;2.15;;
19788;SDS011;10054;59.332;18.244;2023-08-20T11:30:22;2.20;;;2.10;;
19788;SDS011;10054;59.332;18.244;2023-08-20T11:32:51;2.62;;;2.00;;
19788;SDS011;10054;59.332;18.244;2023-08-20T11:35:20;2.30;;;2.20;;
19788;SDS011;10054;59.332;18.244;2023-08-20T11:37:49;2.17;;;2.08;;
19788;SDS011;10054;59.332;18.244;2023-08-20T11:40:20;2.98;;;2.08;;
19788;SDS011;10054;59.332;18.244;2023-08-20T11:42:48;2.40;;;2.20;;
19788;SDS011;10054;59.332;18.244;2023-08-20T11:45:17;2.40;;;2.30;;
19788;SDS011;10054;59.332;18.244;2023-08-20T11:47:48;2.10;;;2.00;;
19788;SDS011;10054;59.332;18.244;2023-08-20T11:50:20;3.95;;;2.22;;
19788;SDS011;10054;59.332;18.244;2023-08-20T11:52:48;2.58;;;2.35;;
19788;SDS011;10054;59.332;18.244;2023-08-20T11:55:29;2.65;;;2.45;;
19788;SDS011;10054;59.332;18.244;2023-08-20T11:57:53;2.92;;;2.72;;
19788;SDS011;10054;59.332;18.244;2023-08-20T12:00:26;3.12;;;2.60;;
19788;SDS011;10054;59.332;18.244;2023-08-20T12:02:55;5.17;;;2.40;;
19788;SDS011;10054;59.332;18.244;2023-08-20T12:05:27;2.50;;;2.40;;
19788;SDS011;10054;59.332;18.244;2023-08-20T12:08:01;2.98;;;2.60;;
19788;SDS011;10054;59.332;18.244;2023-08-20T12:10:32;7.67;;;2.77;;
19788;SDS011;10054;59.332;18.244;2023-08-20T12:13:01;2.55;;;2.35;;
19788;SDS011;10054;59.332;18.244;2023-08-20T12:15:30;2.70;;;2.50;;
19788;SDS011;10054;59.332;18.244;2023-08-20T12:18:02;2.70;;;2.50;;
19788;SDS011;10054;59.332;18.244;2023-08-20T12:20:33;2.45;;;2.25;;
19788;SDS011;10054;59.332;18.244;2023-08-20T12:23:03;2.75;;;2.55;;
19788;SDS011;10054;59.332;18.244;2023-08-20T12:25:34;2.95;;;2.75;;
19788;SDS011;10054;59.332;18.244;2023-08-20T12:28:03;12.43;;;11.20;;
19788;SDS011;10054;59.332;18.244;2023-08-20T12:30:32;28.85;;;25.68;;
19788;SDS011;10054;59.332;18.244;2023-08-20T12:33:05;17.60;;;15.70;;
19788;SDS011;10054;59.332;18.244;2023-08-20T12:35:34;5.95;;;5.25;;
19788;SDS011;10054;59.332;18.244;2023-08-20T12:38:03;4.50;;;2.83;;
19788;SDS011;10054;59.332;18.244;2023-08-20T12:40:31;3.45;;;2.70;;
19788;SDS011;10054;59.332;18.244;2023-08-20T12:43:02;3.98;;;3.58;;
19788;SDS011;10054;59.332;18.244;2023-08-20T12:45:31;2.62;;;2.42;;
19788;SDS011;10054;59.332;18.244;2023-08-20T12:47:59;4.37;;;3.95;;
19788;SDS011;10054;59.332;18.244;2023-08-20T12:50:28;2.90;;;2.70;;
19788;SDS011;10054;59.332;18.244;2023-08-20T12:52:57;7.12;;;2.87;;
19788;SDS011;10054;59.332;18.244;2023-08-20T12:55:25;3.33;;;2.90;;
19788;SDS011;10054;59.332;18.244;2023-08-20T13:00:26;3.60;;;2.77;;
19788;SDS011;10054;59.332;18.244;2023-08-20T13:02:55;4.33;;;3.17;;
19788;SDS011;10054;59.332;18.244;2023-08-20T13:05:24;3.52;;;3.10;;
19788;SDS011;10054;59.332;18.244;2023-08-20T13:07:54;3.58;;;3.27;;
19788;SDS011;10054;59.332;18.244;2023-08-20T13:10:23;3.67;;;3.37;;
19788;SDS011;10054;59.332;18.244;2023-08-20T13:12:52;3.27;;;2.98;;
19788;SDS011;10054;59.332;18.244;2023-08-20T13:15:21;3.62;;;3.33;;
19788;SDS011;10054;59.332;18.244;2023-08-20T13:17:51;4.10;;;3.70;;
19788;SDS011;10054;59.332;18.244;2023-08-20T13:20:21;3.98;;;3.52;;
19788;SDS011;10054;59.332;18.244;2023-08-20T13:22:51;4.33;;;3.52;;
19788;SDS011;10054;59.332;18.244;2023-08-20T13:25:20;3.42;;;3.15;;
19788;SDS011;10054;59.332;18.244;2023-08-20T13:27:49;4.10;;;3.80;;
19788;SDS011;10054;59.332;18.244;2023-08-20T13:30:18;3.80;;;3.50;;
19788;SDS011;10054;59.332;18.244;2023-08-20T13:32:46;3.95;;;3.65;;
19788;SDS011;10054;59.332;18.244;2023-08-20T13:35:15;4.35;;;3.92;;
19788;SDS011;10054;59.332;18.244;2023-08-20T13:37:45;4.25;;;3.67;;
19788;SDS011;10054;59.332;18.244;2023-08-20T13:40:15;4.10;;;3.75;;
19788;SDS011;10054;59.332;18.244;2023-08-20T13:42:43;3.98;;;3.42;;
19788;SDS011;10054;59.332;18.244;2023-08-20T13:45:12;3.98;;;3.67;;
19788;SDS011;10054;59.332;18.244;2023-08-20T13:47:41;4.85;;;4.25;;
19788;SDS011;10054;59.332;18.244;2023-08-20T13:50:11;3.92;;;3.45;;
19788;SDS011;10054;59.332;18.244;2023-08-20T13:52:39;4.03;;;3.77;;
19788;SDS011;10054;59.332;18.244;2023-08-20T13:55:08;3.72;;;3.42;;
19788;SDS011;10054;59.332;18.244;2023-08-20T13:57:38;4.15;;;3.85;;
19788;SDS011;10054;59.332;18.244;2023-08-20T14:00:07;4.20;;;3.80;;
19788;SDS011;10054;59.332;18.244;2023-08-20T14:02:38;4.00;;;3.60;;
19788;SDS011;10054;59.332;18.244;2023-08-20T14:05:07;4.30;;;4.00;;
19788;SDS011;10054;59.332;18.244;2023-08-20T14:07:36;4.70;;;3.85;;
19788;SDS011;10054;59.332;18.244;2023-08-20T14:10:05;4.35;;;4.05;;
19788;SDS011;10054;59.332;18.244;2023-08-20T14:12:34;4.07;;;3.70;;
19788;SDS011;10054;59.332;18.244;2023-08-20T14:15:03;5.28;;;3.85;;
19788;SDS011;10054;59.332;18.244;2023-08-20T14:17:32;4.35;;;3.90;;
19788;SDS011;10054;59.332;18.244;2023-08-20T14:20:01;4.50;;;4.20;;
19788;SDS011;10054;59.332;18.244;2023-08-20T14:22:31;4.58;;;4.17;;
19788;SDS011;10054;59.332;18.244;2023-08-20T14:25:00;6.00;;;4.40;;
19788;SDS011;10054;59.332;18.244;2023-08-20T14:27:30;5.00;;;4.60;;
19788;SDS011;10054;59.332;18.244;2023-08-20T14:29:59;5.35;;;4.37;;
19788;SDS011;10054;59.332;18.244;2023-08-20T14:32:27;5.05;;;4.65;;
19788;SDS011;10054;59.332;18.244;2023-08-20T14:34:56;4.97;;;4.47;;
19788;SDS011;10054;59.332;18.244;2023-08-20T14:37:25;6.12;;;4.30;;
19788;SDS011;10054;59.332;18.244;2023-08-20T14:39:54;4.40;;;4.00;;
19788;SDS011;10054;59.332;18.244;2023-08-20T14:42:23;4.85;;;4.28;;
19788;SDS011;10054;59.332;18.244;2023-08-20T14:44:51;4.80;;;4.30;;
19788;SDS011;10054;59.332;18.244;2023-08-20T14:47:20;5.13;;;4.50;;
19788;SDS011;10054;59.332;18.244;2023-08-20T14:49:49;4.80;;;4.40;;
19788;SDS011;10054;59.332;18.244;2023-08-20T14:52:18;4.75;;;4.35;;
19788;SDS011;10054;59.332;18.244;2023-08-20T14:54:47;4.97;;;4.35;;
19788;SDS011;10054;59.332;18.244;2023-08-20T14:57:15;5.55;;;4.50;;
19788;SDS011;10054;59.332;18.244;2023-08-20T14:59:45;8.35;;;4.83;;
19788;SDS011;10054;59.332;18.244;2023-08-20T15:02:18;5.20;;;4.80;;